sensor_id;sensor_type;location;lat;lon;timestamp;P1;durP1;ratioP1;P2;durP2;ratioP2
23868;SDS011;12115;47.128;15.422;2022-07-06T00:01:20;4.93;;;1.85;;
23868;SDS011;12115;47.128;15.422;2022-07-06T00:03:48;4.22;;;2.15;;
23868;SDS011;12115;47.128;15.422;2022-07-06T00:06:20;6.47;;;2.22;;
23868;SDS011;12115;47.128;15.422;2022-07-06T00:08:48;7.57;;;2.40;;
23868;SDS011;12115;47.128;15.422;2022-07-06T00:11:15;2.42;;;2.22;;
23868;SDS011;12115;47.128;15.422;2022-07-06T00:13:42;2.08;;;1.70;;
23868;SDS011;12115;47.128;15.422;2022-07-06T00:16:09;2.75;;;2.25;;
23868;SDS011;12115;47.128;15.422;2022-07-06T00:18:37;2.35;;;1.73;;
23868;SDS011;12115;47.128;15.422;2022-07-06T00:21:04;5.32;;;2.00;;
23868;SDS011;12115;47.128;15.422;2022-07-06T00:23:31;3.00;;;2.03;;
23868;SDS011;12115;47.128;15.422;2022-07-06T00:25:58;4.18;;;1.95;;
23868;SDS011;12115;47.128;15.422;2022-07-06T00:28:25;5.18;;;2.13;;
23868;SDS011;12115;47.128;15.422;2022-07-06T00:30:52;2.67;;;2.40;;
23868;SDS011;12115;47.128;15.422;2022-07-06T00:33:20;4.18;;;2.25;;
23868;SDS011;12115;47.128;15.422;2022-07-06T00:35:47;3.45;;;1.83;;
23868;SDS011;12115;47.128;15.422;2022-07-06T00:38:15;2.63;;;2.10;;
23868;SDS011;12115;47.128;15.422;2022-07-06T00:40:42;5.13;;;1.92;;
23868;SDS011;12115;47.128;15.422;2022-07-06T00:43:09;3.58;;;2.00;;
23868;SDS011;12115;47.128;15.422;2022-07-06T00:45:36;3.13;;;2.08;;
23868;SDS011;12115;47.128;15.422;2022-07-06T00:48:03;3.08;;;2.55;;
23868;SDS011;12115;47.128;15.422;2022-07-06T00:50:30;5.40;;;2.33;;
23868;SDS011;12115;47.128;15.422;2022-07-06T00:53:02;4.00;;;2.22;;
23868;SDS011;12115;47.128;15.422;2022-07-06T00:55:33;3.53;;;2.30;;
23868;SDS011;12115;47.128;15.422;2022-07-06T00:58:02;3.05;;;2.10;;
23868;SDS011;12115;47.128;15.422;2022-07-06T01:00:31;4.55;;;2.45;;
23868;SDS011;12115;47.128;15.422;2022-07-06T01:02:59;3.50;;;2.08;;
23868;SDS011;12115;47.128;15.422;2022-07-06T01:05:26;3.33;;;2.20;;
23868;SDS011;12115;47.128;15.422;2022-07-06T01:07:53;2.83;;;2.40;;
23868;SDS011;12115;47.128;15.422;2022-07-06T01:10:21;3.13;;;2.40;;
23868;SDS011;12115;47.128;15.422;2022-07-06T01:12:49;2.60;;;2.40;;
23868;SDS011;12115;47.128;15.422;2022-07-06T01:15:20;3.28;;;2.55;;
23868;SDS011;12115;47.128;15.422;2022-07-06T01:17:51;4.07;;;2.35;;
23868;SDS011;12115;47.128;15.422;2022-07-06T01:20:24;5.22;;;2.60;;
23868;SDS011;12115;47.128;15.422;2022-07-06T01:22:53;3.65;;;2.78;;
23868;SDS011;12115;47.128;15.422;2022-07-06T01:25:23;3.67;;;2.47;;
23868;SDS011;12115;47.128;15.422;2022-07-06T01:27:50;3.85;;;2.50;;
23868;SDS011;12115;47.128;15.422;2022-07-06T01:30:18;3.83;;;2.45;;
23868;SDS011;12115;47.128;15.422;2022-07-06T01:32:46;4.03;;;2.17;;
23868;SDS011;12115;47.128;15.422;2022-07-06T01:35:14;3.92;;;2.70;;
23868;SDS011;12115;47.128;15.422;2022-07-06T01:37:42;2.95;;;2.65;;
23868;SDS011;12115;47.128;15.422;2022-07-06T01:40:10;2.60;;;2.40;;
23868;SDS011;12115;47.128;15.422;2022-07-06T01:42:38;3.78;;;2.42;;
23868;SDS011;12115;47.128;15.422;2022-07-06T01:45:06;3.10;;;2.20;;
23868;SDS011;12115;47.128;15.422;2022-07-06T01:47:35;3.15;;;2.50;;
23868;SDS011;12115;47.128;15.422;2022-07-06T01:50:05;3.05;;;2.50;;
23868;SDS011;12115;47.128;15.422;2022-07-06T01:52:37;2.55;;;2.35;;
23868;SDS011;12115;47.128;15.422;2022-07-06T01:55:04;4.68;;;2.90;;
23868;SDS011;12115;47.128;15.422;2022-07-06T01:57:33;3.17;;;2.25;;
23868;SDS011;12115;47.128;15.422;2022-07-06T02:00:00;2.85;;;2.20;;
23868;SDS011;12115;47.128;15.422;2022-07-06T02:02:37;3.65;;;2.60;;
23868;SDS011;12115;47.128;15.422;2022-07-06T02:05:08;7.38;;;2.25;;
23868;SDS011;12115;47.128;15.422;2022-07-06T02:07:36;5.78;;;2.65;;
23868;SDS011;12115;47.128;15.422;2022-07-06T02:10:03;3.85;;;2.50;;
23868;SDS011;12115;47.128;15.422;2022-07-06T02:12:30;3.45;;;2.42;;
23868;SDS011;12115;47.128;15.422;2022-07-06T02:14:57;4.07;;;2.55;;
23868;SDS011;12115;47.128;15.422;2022-07-06T02:17:24;5.80;;;2.40;;
23868;SDS011;12115;47.128;15.422;2022-07-06T02:19:51;2.72;;;2.53;;
23868;SDS011;12115;47.128;15.422;2022-07-06T02:22:20;3.17;;;2.88;;
23868;SDS011;12115;47.128;15.422;2022-07-06T02:24:47;2.42;;;2.22;;
23868;SDS011;12115;47.128;15.422;2022-07-06T02:27:14;3.85;;;2.60;;
23868;SDS011;12115;47.128;15.422;2022-07-06T02:29:42;7.05;;;3.58;;
23868;SDS011;12115;47.128;15.422;2022-07-06T02:32:09;4.47;;;4.07;;
23868;SDS011;12115;47.128;15.422;2022-07-06T02:34:37;6.22;;;2.85;;
23868;SDS011;12115;47.128;15.422;2022-07-06T02:37:04;6.13;;;3.25;;
23868;SDS011;12115;47.128;15.422;2022-07-06T02:39:31;3.85;;;2.42;;
23868;SDS011;12115;47.128;15.422;2022-07-06T02:41:58;5.68;;;2.65;;
23868;SDS011;12115;47.128;15.422;2022-07-06T02:44:25;3.58;;;2.30;;
23868;SDS011;12115;47.128;15.422;2022-07-06T02:46:52;4.30;;;2.50;;
23868;SDS011;12115;47.128;15.422;2022-07-06T02:49:19;3.15;;;2.67;;
23868;SDS011;12115;47.128;15.422;2022-07-06T02:51:47;6.03;;;2.30;;
23868;SDS011;12115;47.128;15.422;2022-07-06T02:54:14;3.92;;;2.45;;
23868;SDS011;12115;47.128;15.422;2022-07-06T02:56:42;5.82;;;2.20;;
23868;SDS011;12115;47.128;15.422;2022-07-06T02:59:10;2.60;;;2.40;;
23868;SDS011;12115;47.128;15.422;2022-07-06T03:01:41;5.95;;;2.40;;
23868;SDS011;12115;47.128;15.422;2022-07-06T03:04:08;4.85;;;2.53;;
23868;SDS011;12115;47.128;15.422;2022-07-06T03:06:35;2.63;;;2.42;;
23868;SDS011;12115;47.128;15.422;2022-07-06T03:09:02;2.80;;;2.42;;
23868;SDS011;12115;47.128;15.422;2022-07-06T03:11:30;5.53;;;2.42;;
23868;SDS011;12115;47.128;15.422;2022-07-06T03:13:57;3.67;;;2.60;;
23868;SDS011;12115;47.128;15.422;2022-07-06T03:16:25;5.32;;;3.17;;
23868;SDS011;12115;47.128;15.422;2022-07-06T03:18:52;3.10;;;2.40;;
23868;SDS011;12115;47.128;15.422;2022-07-06T03:21:20;4.07;;;2.40;;
23868;SDS011;12115;47.128;15.422;2022-07-06T03:23:48;4.13;;;2.10;;
23868;SDS011;12115;47.128;15.422;2022-07-06T03:26:15;2.50;;;2.30;;
23868;SDS011;12115;47.128;15.422;2022-07-06T03:28:43;4.95;;;2.40;;
23868;SDS011;12115;47.128;15.422;2022-07-06T03:31:10;3.15;;;2.63;;
23868;SDS011;12115;47.128;15.422;2022-07-06T03:33:38;2.72;;;2.47;;
23868;SDS011;12115;47.128;15.422;2022-07-06T03:36:05;2.40;;;2.20;;
23868;SDS011;12115;47.128;15.422;2022-07-06T03:38:35;6.57;;;2.60;;
23868;SDS011;12115;47.128;15.422;2022-07-06T03:41:02;4.78;;;2.83;;
23868;SDS011;12115;47.128;15.422;2022-07-06T03:43:31;8.70;;;2.75;;
23868;SDS011;12115;47.128;15.422;2022-07-06T03:45:58;4.50;;;2.75;;
23868;SDS011;12115;47.128;15.422;2022-07-06T03:48:26;6.85;;;3.05;;
23868;SDS011;12115;47.128;15.422;2022-07-06T03:50:54;6.35;;;2.70;;
23868;SDS011;12115;47.128;15.422;2022-07-06T03:53:22;6.75;;;2.92;;
23868;SDS011;12115;47.128;15.422;2022-07-06T03:55:49;2.92;;;1.92;;
23868;SDS011;12115;47.128;15.422;2022-07-06T03:58:38;5.28;;;2.60;;
23868;SDS011;12115;47.128;15.422;2022-07-06T04:01:05;4.45;;;2.45;;
23868;SDS011;12115;47.128;15.422;2022-07-06T04:03:33;5.55;;;2.30;;
23868;SDS011;12115;47.128;15.422;2022-07-06T04:06:01;5.85;;;2.10;;
23868;SDS011;12115;47.128;15.422;2022-07-06T04:08:29;3.58;;;2.60;;
23868;SDS011;12115;47.128;15.422;2022-07-06T04:10:57;2.90;;;2.63;;
23868;SDS011;12115;47.128;15.422;2022-07-06T04:13:24;4.90;;;2.38;;
23868;SDS011;12115;47.128;15.422;2022-07-06T04:15:52;3.03;;;2.72;;
23868;SDS011;12115;47.128;15.422;2022-07-06T04:18:19;4.03;;;2.45;;
23868;SDS011;12115;47.128;15.422;2022-07-06T04:20:52;3.42;;;2.72;;
23868;SDS011;12115;47.128;15.422;2022-07-06T04:23:19;6.38;;;3.00;;
23868;SDS011;12115;47.128;15.422;2022-07-06T04:25:47;4.45;;;2.30;;
23868;SDS011;12115;47.128;15.422;2022-07-06T04:28:14;4.88;;;2.70;;
23868;SDS011;12115;47.128;15.422;2022-07-06T04:30:41;6.28;;;2.70;;
23868;SDS011;12115;47.128;15.422;2022-07-06T04:33:12;4.40;;;1.90;;
23868;SDS011;12115;47.128;15.422;2022-07-06T04:35:40;2.72;;;2.38;;
23868;SDS011;12115;47.128;15.422;2022-07-06T04:38:07;3.72;;;2.25;;
23868;SDS011;12115;47.128;15.422;2022-07-06T04:40:35;2.97;;;1.83;;
23868;SDS011;12115;47.128;15.422;2022-07-06T04:45:34;4.88;;;2.00;;
23868;SDS011;12115;47.128;15.422;2022-07-06T04:48:01;5.03;;;2.20;;
23868;SDS011;12115;47.128;15.422;2022-07-06T04:50:28;3.30;;;1.90;;
23868;SDS011;12115;47.128;15.422;2022-07-06T04:53:05;5.78;;;2.38;;
23868;SDS011;12115;47.128;15.422;2022-07-06T04:55:34;3.58;;;2.10;;
23868;SDS011;12115;47.128;15.422;2022-07-06T04:58:01;1.92;;;1.80;;
23868;SDS011;12115;47.128;15.422;2022-07-06T05:00:28;2.20;;;1.92;;
23868;SDS011;12115;47.128;15.422;2022-07-06T05:02:56;6.65;;;2.50;;
23868;SDS011;12115;47.128;15.422;2022-07-06T05:05:25;4.70;;;2.33;;
23868;SDS011;12115;47.128;15.422;2022-07-06T05:07:52;3.40;;;2.47;;
23868;SDS011;12115;47.128;15.422;2022-07-06T05:10:19;3.10;;;2.60;;
23868;SDS011;12115;47.128;15.422;2022-07-06T05:12:50;4.68;;;2.90;;
23868;SDS011;12115;47.128;15.422;2022-07-06T05:15:17;4.82;;;2.47;;
23868;SDS011;12115;47.128;15.422;2022-07-06T05:17:44;4.80;;;2.10;;
23868;SDS011;12115;47.128;15.422;2022-07-06T05:20:12;3.65;;;2.05;;
23868;SDS011;12115;47.128;15.422;2022-07-06T05:22:42;2.33;;;2.10;;
23868;SDS011;12115;47.128;15.422;2022-07-06T05:25:15;3.70;;;2.53;;
23868;SDS011;12115;47.128;15.422;2022-07-06T05:27:42;2.60;;;1.98;;
23868;SDS011;12115;47.128;15.422;2022-07-06T05:30:10;7.10;;;1.98;;
23868;SDS011;12115;47.128;15.422;2022-07-06T05:32:38;5.25;;;2.00;;
23868;SDS011;12115;47.128;15.422;2022-07-06T05:35:05;3.35;;;2.00;;
23868;SDS011;12115;47.128;15.422;2022-07-06T05:37:54;4.45;;;1.73;;
23868;SDS011;12115;47.128;15.422;2022-07-06T05:40:21;5.00;;;1.80;;
23868;SDS011;12115;47.128;15.422;2022-07-06T05:42:48;4.45;;;1.92;;
23868;SDS011;12115;47.128;15.422;2022-07-06T05:45:16;4.95;;;1.88;;
23868;SDS011;12115;47.128;15.422;2022-07-06T05:47:43;3.33;;;2.13;;
23868;SDS011;12115;47.128;15.422;2022-07-06T05:50:31;8.38;;;2.10;;
23868;SDS011;12115;47.128;15.422;2022-07-06T05:52:59;9.52;;;2.20;;
23868;SDS011;12115;47.128;15.422;2022-07-06T05:55:38;7.28;;;2.10;;
23868;SDS011;12115;47.128;15.422;2022-07-06T05:58:05;2.50;;;2.00;;
23868;SDS011;12115;47.128;15.422;2022-07-06T06:00:34;4.50;;;2.00;;
23868;SDS011;12115;47.128;15.422;2022-07-06T06:03:07;3.40;;;1.77;;
23868;SDS011;12115;47.128;15.422;2022-07-06T06:05:34;1.80;;;1.67;;
23868;SDS011;12115;47.128;15.422;2022-07-06T06:08:04;4.50;;;2.08;;
23868;SDS011;12115;47.128;15.422;2022-07-06T06:10:32;6.28;;;2.25;;
23868;SDS011;12115;47.128;15.422;2022-07-06T06:13:03;4.40;;;2.55;;
23868;SDS011;12115;47.128;15.422;2022-07-06T06:15:32;3.33;;;2.20;;
23868;SDS011;12115;47.128;15.422;2022-07-06T06:17:59;4.32;;;2.05;;
23868;SDS011;12115;47.128;15.422;2022-07-06T06:20:26;6.47;;;2.38;;
23868;SDS011;12115;47.128;15.422;2022-07-06T06:22:54;2.38;;;2.10;;
23868;SDS011;12115;47.128;15.422;2022-07-06T06:25:34;2.90;;;2.13;;
23868;SDS011;12115;47.128;15.422;2022-07-06T06:28:03;7.28;;;2.35;;
23868;SDS011;12115;47.128;15.422;2022-07-06T06:30:32;3.28;;;2.20;;
23868;SDS011;12115;47.128;15.422;2022-07-06T06:35:36;5.68;;;2.00;;
23868;SDS011;12115;47.128;15.422;2022-07-06T06:38:04;4.90;;;2.17;;
23868;SDS011;12115;47.128;15.422;2022-07-06T06:40:31;5.30;;;2.05;;
23868;SDS011;12115;47.128;15.422;2022-07-06T06:42:58;5.20;;;2.00;;
23868;SDS011;12115;47.128;15.422;2022-07-06T06:45:27;3.58;;;1.85;;
23868;SDS011;12115;47.128;15.422;2022-07-06T06:47:55;4.72;;;1.90;;
23868;SDS011;12115;47.128;15.422;2022-07-06T06:50:22;3.97;;;2.10;;
23868;SDS011;12115;47.128;15.422;2022-07-06T06:52:50;4.15;;;2.00;;
23868;SDS011;12115;47.128;15.422;2022-07-06T06:55:17;5.00;;;1.90;;
23868;SDS011;12115;47.128;15.422;2022-07-06T06:57:44;10.80;;;2.08;;
23868;SDS011;12115;47.128;15.422;2022-07-06T07:00:12;4.95;;;2.10;;
23868;SDS011;12115;47.128;15.422;2022-07-06T07:02:40;5.22;;;1.80;;
23868;SDS011;12115;47.128;15.422;2022-07-06T07:05:07;5.00;;;2.13;;
23868;SDS011;12115;47.128;15.422;2022-07-06T07:07:34;8.60;;;2.20;;
23868;SDS011;12115;47.128;15.422;2022-07-06T07:10:03;5.82;;;2.03;;
23868;SDS011;12115;47.128;15.422;2022-07-06T07:12:31;5.63;;;2.20;;
23868;SDS011;12115;47.128;15.422;2022-07-06T07:14:59;4.65;;;1.73;;
23868;SDS011;12115;47.128;15.422;2022-07-06T07:17:27;4.78;;;1.55;;
23868;SDS011;12115;47.128;15.422;2022-07-06T07:19:54;5.03;;;1.60;;
23868;SDS011;12115;47.128;15.422;2022-07-06T07:22:23;3.90;;;1.58;;
23868;SDS011;12115;47.128;15.422;2022-07-06T07:24:51;2.13;;;1.50;;
23868;SDS011;12115;47.128;15.422;2022-07-06T07:27:18;5.32;;;1.60;;
23868;SDS011;12115;47.128;15.422;2022-07-06T07:29:45;4.28;;;1.38;;
23868;SDS011;12115;47.128;15.422;2022-07-06T07:32:12;5.13;;;1.30;;
23868;SDS011;12115;47.128;15.422;2022-07-06T07:34:39;3.03;;;1.52;;
23868;SDS011;12115;47.128;15.422;2022-07-06T07:37:06;3.40;;;1.38;;
23868;SDS011;12115;47.128;15.422;2022-07-06T07:39:33;4.45;;;1.35;;
23868;SDS011;12115;47.128;15.422;2022-07-06T07:42:00;5.90;;;1.27;;
23868;SDS011;12115;47.128;15.422;2022-07-06T07:44:27;5.68;;;1.50;;
23868;SDS011;12115;47.128;15.422;2022-07-06T07:46:54;5.47;;;1.50;;
23868;SDS011;12115;47.128;15.422;2022-07-06T07:49:21;5.35;;;1.08;;
23868;SDS011;12115;47.128;15.422;2022-07-06T07:51:48;5.07;;;1.40;;
23868;SDS011;12115;47.128;15.422;2022-07-06T07:54:16;3.28;;;1.23;;
23868;SDS011;12115;47.128;15.422;2022-07-06T07:56:43;2.90;;;1.25;;
23868;SDS011;12115;47.128;15.422;2022-07-06T07:59:10;4.85;;;1.38;;
23868;SDS011;12115;47.128;15.422;2022-07-06T08:01:38;3.55;;;1.55;;
23868;SDS011;12115;47.128;15.422;2022-07-06T08:04:05;3.58;;;1.10;;
23868;SDS011;12115;47.128;15.422;2022-07-06T08:06:33;1.65;;;0.95;;
23868;SDS011;12115;47.128;15.422;2022-07-06T08:09:00;2.95;;;1.05;;
23868;SDS011;12115;47.128;15.422;2022-07-06T08:11:29;4.63;;;1.20;;
23868;SDS011;12115;47.128;15.422;2022-07-06T08:13:56;5.10;;;1.20;;
23868;SDS011;12115;47.128;15.422;2022-07-06T08:16:23;2.53;;;1.15;;
23868;SDS011;12115;47.128;15.422;2022-07-06T08:18:50;2.95;;;1.00;;
23868;SDS011;12115;47.128;15.422;2022-07-06T08:21:17;1.60;;;0.80;;
23868;SDS011;12115;47.128;15.422;2022-07-06T08:23:53;1.90;;;0.70;;
23868;SDS011;12115;47.128;15.422;2022-07-06T08:26:21;0.90;;;0.70;;
23868;SDS011;12115;47.128;15.422;2022-07-06T08:28:48;1.83;;;0.95;;
23868;SDS011;12115;47.128;15.422;2022-07-06T08:31:17;3.42;;;0.70;;
23868;SDS011;12115;47.128;15.422;2022-07-06T08:34:04;0.63;;;0.60;;
23868;SDS011;12115;47.128;15.422;2022-07-06T08:36:31;2.72;;;0.82;;
23868;SDS011;12115;47.128;15.422;2022-07-06T08:38:58;4.38;;;0.80;;
23868;SDS011;12115;47.128;15.422;2022-07-06T08:41:26;0.60;;;0.60;;
23868;SDS011;12115;47.128;15.422;2022-07-06T08:43:56;3.28;;;0.90;;
23868;SDS011;12115;47.128;15.422;2022-07-06T08:46:23;1.95;;;0.90;;
23868;SDS011;12115;47.128;15.422;2022-07-06T08:48:53;0.77;;;0.70;;
23868;SDS011;12115;47.128;15.422;2022-07-06T08:51:22;3.80;;;0.95;;
23868;SDS011;12115;47.128;15.422;2022-07-06T08:53:56;2.05;;;0.90;;
23868;SDS011;12115;47.128;15.422;2022-07-06T08:56:23;2.08;;;0.82;;
23868;SDS011;12115;47.128;15.422;2022-07-06T08:58:52;1.75;;;0.50;;
23868;SDS011;12115;47.128;15.422;2022-07-06T09:01:20;3.15;;;0.70;;
23868;SDS011;12115;47.128;15.422;2022-07-06T09:03:49;1.25;;;0.68;;
23868;SDS011;12115;47.128;15.422;2022-07-06T09:06:18;2.28;;;0.82;;
23868;SDS011;12115;47.128;15.422;2022-07-06T09:08:52;1.90;;;1.10;;
23868;SDS011;12115;47.128;15.422;2022-07-06T09:11:21;0.95;;;0.85;;
23868;SDS011;12115;47.128;15.422;2022-07-06T09:13:51;0.75;;;0.60;;
23868;SDS011;12115;47.128;15.422;2022-07-06T09:16:24;2.35;;;1.08;;
23868;SDS011;12115;47.128;15.422;2022-07-06T09:19:05;2.03;;;1.08;;
23868;SDS011;12115;47.128;15.422;2022-07-06T09:21:33;4.43;;;0.90;;
23868;SDS011;12115;47.128;15.422;2022-07-06T09:24:10;1.23;;;0.60;;
23868;SDS011;12115;47.128;15.422;2022-07-06T09:26:39;1.83;;;0.80;;
23868;SDS011;12115;47.128;15.422;2022-07-06T09:29:07;2.88;;;0.70;;
23868;SDS011;12115;47.128;15.422;2022-07-06T09:31:34;3.05;;;0.80;;
23868;SDS011;12115;47.128;15.422;2022-07-06T09:34:11;3.85;;;0.70;;
23868;SDS011;12115;47.128;15.422;2022-07-06T09:41:53;1.77;;;0.70;;
23868;SDS011;12115;47.128;15.422;2022-07-06T09:44:22;2.35;;;0.60;;
23868;SDS011;12115;47.128;15.422;2022-07-06T09:47:00;0.68;;;0.60;;
23868;SDS011;12115;47.128;15.422;2022-07-06T09:49:29;2.92;;;0.90;;
23868;SDS011;12115;47.128;15.422;2022-07-06T09:51:57;2.33;;;0.70;;
23868;SDS011;12115;47.128;15.422;2022-07-06T09:54:25;1.58;;;0.77;;
23868;SDS011;12115;47.128;15.422;2022-07-06T09:56:53;6.15;;;0.65;;
23868;SDS011;12115;47.128;15.422;2022-07-06T09:59:23;4.38;;;0.73;;
23868;SDS011;12115;47.128;15.422;2022-07-06T10:01:54;4.50;;;1.07;;
23868;SDS011;12115;47.128;15.422;2022-07-06T10:04:24;2.25;;;0.75;;
23868;SDS011;12115;47.128;15.422;2022-07-06T10:06:52;2.10;;;0.85;;
23868;SDS011;12115;47.128;15.422;2022-07-06T10:09:21;3.67;;;0.88;;
23868;SDS011;12115;47.128;15.422;2022-07-06T10:11:51;1.00;;;0.60;;
23868;SDS011;12115;47.128;15.422;2022-07-06T10:14:21;1.23;;;0.73;;
23868;SDS011;12115;47.128;15.422;2022-07-06T10:16:57;1.17;;;0.60;;
23868;SDS011;12115;47.128;15.422;2022-07-06T10:21:53;1.13;;;0.47;;
23868;SDS011;12115;47.128;15.422;2022-07-06T10:24:22;1.10;;;0.47;;
23868;SDS011;12115;47.128;15.422;2022-07-06T10:26:50;2.50;;;0.75;;
23868;SDS011;12115;47.128;15.422;2022-07-06T10:29:19;3.08;;;0.70;;
23868;SDS011;12115;47.128;15.422;2022-07-06T10:31:47;3.67;;;0.60;;
23868;SDS011;12115;47.128;15.422;2022-07-06T10:34:15;1.55;;;0.70;;
23868;SDS011;12115;47.128;15.422;2022-07-06T10:36:50;0.75;;;0.60;;
23868;SDS011;12115;47.128;15.422;2022-07-06T10:39:38;0.70;;;0.50;;
23868;SDS011;12115;47.128;15.422;2022-07-06T10:50:40;3.13;;;0.60;;
23868;SDS011;12115;47.128;15.422;2022-07-06T10:53:32;2.25;;;0.70;;
23868;SDS011;12115;47.128;15.422;2022-07-06T10:56:00;1.90;;;0.50;;
23868;SDS011;12115;47.128;15.422;2022-07-06T10:58:34;1.25;;;0.60;;
23868;SDS011;12115;47.128;15.422;2022-07-06T11:01:09;4.32;;;0.60;;
23868;SDS011;12115;47.128;15.422;2022-07-06T11:03:41;1.10;;;0.55;;
23868;SDS011;12115;47.128;15.422;2022-07-06T11:06:10;2.20;;;0.50;;
23868;SDS011;12115;47.128;15.422;2022-07-06T11:11:18;3.33;;;0.70;;
23868;SDS011;12115;47.128;15.422;2022-07-06T11:19:15;0.60;;;0.50;;
23868;SDS011;12115;47.128;15.422;2022-07-06T11:24:29;1.73;;;0.50;;
23868;SDS011;12115;47.128;15.422;2022-07-06T11:26:58;1.98;;;0.60;;
23868;SDS011;12115;47.128;15.422;2022-07-06T11:29:26;3.47;;;0.60;;
23868;SDS011;12115;47.128;15.422;2022-07-06T11:31:55;2.65;;;0.63;;
23868;SDS011;12115;47.128;15.422;2022-07-06T11:34:25;1.88;;;0.70;;
23868;SDS011;12115;47.128;15.422;2022-07-06T11:36:56;0.80;;;0.50;;
23868;SDS011;12115;47.128;15.422;2022-07-06T11:39:28;3.22;;;0.60;;
23868;SDS011;12115;47.128;15.422;2022-07-06T11:41:59;3.03;;;0.68;;
23868;SDS011;12115;47.128;15.422;2022-07-06T11:44:27;3.30;;;0.60;;
23868;SDS011;12115;47.128;15.422;2022-07-06T11:46:54;3.50;;;0.68;;
23868;SDS011;12115;47.128;15.422;2022-07-06T11:49:23;1.73;;;0.70;;
23868;SDS011;12115;47.128;15.422;2022-07-06T11:51:50;1.13;;;0.60;;
23868;SDS011;12115;47.128;15.422;2022-07-06T11:54:18;0.77;;;0.50;;
23868;SDS011;12115;47.128;15.422;2022-07-06T11:59:25;1.48;;;0.52;;
23868;SDS011;12115;47.128;15.422;2022-07-06T12:02:06;2.08;;;0.60;;
23868;SDS011;12115;47.128;15.422;2022-07-06T12:04:36;2.20;;;0.57;;
23868;SDS011;12115;47.128;15.422;2022-07-06T12:07:06;0.60;;;0.50;;
23868;SDS011;12115;47.128;15.422;2022-07-06T12:09:36;3.55;;;0.52;;
23868;SDS011;12115;47.128;15.422;2022-07-06T12:12:04;0.90;;;0.50;;
23868;SDS011;12115;47.128;15.422;2022-07-06T12:14:33;0.88;;;0.60;;
23868;SDS011;12115;47.128;15.422;2022-07-06T12:17:12;1.13;;;0.57;;
23868;SDS011;12115;47.128;15.422;2022-07-06T12:19:41;3.13;;;0.60;;
23868;SDS011;12115;47.128;15.422;2022-07-06T12:22:09;0.85;;;0.50;;
23868;SDS011;12115;47.128;15.422;2022-07-06T12:24:37;2.15;;;0.73;;
23868;SDS011;12115;47.128;15.422;2022-07-06T12:27:14;0.50;;;0.40;;
23868;SDS011;12115;47.128;15.422;2022-07-06T12:29:47;1.85;;;0.50;;
23868;SDS011;12115;47.128;15.422;2022-07-06T12:32:19;1.20;;;0.55;;
23868;SDS011;12115;47.128;15.422;2022-07-06T12:37:35;2.47;;;0.50;;
23868;SDS011;12115;47.128;15.422;2022-07-06T12:40:02;2.55;;;0.60;;
23868;SDS011;12115;47.128;15.422;2022-07-06T12:42:45;1.17;;;0.47;;
23868;SDS011;12115;47.128;15.422;2022-07-06T12:45:13;1.25;;;0.60;;
23868;SDS011;12115;47.128;15.422;2022-07-06T12:47:41;1.13;;;0.63;;
23868;SDS011;12115;47.128;15.422;2022-07-06T12:50:29;1.23;;;0.40;;
23868;SDS011;12115;47.128;15.422;2022-07-06T12:52:58;0.70;;;0.50;;
23868;SDS011;12115;47.128;15.422;2022-07-06T12:55:29;2.22;;;0.60;;
23868;SDS011;12115;47.128;15.422;2022-07-06T12:57:57;1.00;;;0.50;;
23868;SDS011;12115;47.128;15.422;2022-07-06T13:00:25;1.17;;;0.60;;
23868;SDS011;12115;47.128;15.422;2022-07-06T13:02:52;2.28;;;0.57;;
23868;SDS011;12115;47.128;15.422;2022-07-06T13:05:36;1.20;;;0.50;;
23868;SDS011;12115;47.128;15.422;2022-07-06T13:08:05;0.60;;;0.60;;
23868;SDS011;12115;47.128;15.422;2022-07-06T13:10:35;2.03;;;0.60;;
23868;SDS011;12115;47.128;15.422;2022-07-06T13:13:03;2.55;;;0.77;;
23868;SDS011;12115;47.128;15.422;2022-07-06T13:15:34;2.63;;;0.57;;
23868;SDS011;12115;47.128;15.422;2022-07-06T13:18:01;2.60;;;0.68;;
23868;SDS011;12115;47.128;15.422;2022-07-06T13:20:28;1.30;;;0.47;;
23868;SDS011;12115;47.128;15.422;2022-07-06T13:22:55;2.13;;;0.60;;
23868;SDS011;12115;47.128;15.422;2022-07-06T13:25:22;1.92;;;0.45;;
23868;SDS011;12115;47.128;15.422;2022-07-06T13:27:49;3.88;;;0.50;;
23868;SDS011;12115;47.128;15.422;2022-07-06T13:30:16;0.50;;;0.50;;
23868;SDS011;12115;47.128;15.422;2022-07-06T13:32:43;2.35;;;0.50;;
23868;SDS011;12115;47.128;15.422;2022-07-06T13:35:10;1.10;;;0.50;;
23868;SDS011;12115;47.128;15.422;2022-07-06T13:37:37;0.70;;;0.55;;
23868;SDS011;12115;47.128;15.422;2022-07-06T13:40:05;1.52;;;0.50;;
23868;SDS011;12115;47.128;15.422;2022-07-06T13:42:32;1.17;;;0.52;;
23868;SDS011;12115;47.128;15.422;2022-07-06T13:44:59;1.08;;;0.50;;
23868;SDS011;12115;47.128;15.422;2022-07-06T13:47:26;1.85;;;0.60;;
23868;SDS011;12115;47.128;15.422;2022-07-06T13:49:53;2.33;;;0.70;;
23868;SDS011;12115;47.128;15.422;2022-07-06T13:52:20;0.47;;;0.40;;
23868;SDS011;12115;47.128;15.422;2022-07-06T13:54:47;3.83;;;0.65;;
23868;SDS011;12115;47.128;15.422;2022-07-06T13:57:14;1.20;;;0.77;;
23868;SDS011;12115;47.128;15.422;2022-07-06T13:59:41;2.10;;;0.63;;
23868;SDS011;12115;47.128;15.422;2022-07-06T14:02:09;1.73;;;0.50;;
23868;SDS011;12115;47.128;15.422;2022-07-06T14:04:37;0.95;;;0.50;;
23868;SDS011;12115;47.128;15.422;2022-07-06T14:07:05;1.25;;;0.30;;
23868;SDS011;12115;47.128;15.422;2022-07-06T14:09:32;1.58;;;0.60;;
23868;SDS011;12115;47.128;15.422;2022-07-06T14:11:59;0.55;;;0.40;;
23868;SDS011;12115;47.128;15.422;2022-07-06T14:14:26;0.57;;;0.50;;
23868;SDS011;12115;47.128;15.422;2022-07-06T14:16:53;1.60;;;0.47;;
23868;SDS011;12115;47.128;15.422;2022-07-06T14:19:22;2.28;;;0.40;;
23868;SDS011;12115;47.128;15.422;2022-07-06T14:21:49;1.48;;;0.50;;
23868;SDS011;12115;47.128;15.422;2022-07-06T14:24:16;1.13;;;0.50;;
23868;SDS011;12115;47.128;15.422;2022-07-06T14:26:43;2.40;;;0.60;;
23868;SDS011;12115;47.128;15.422;2022-07-06T14:29:10;1.05;;;0.60;;
23868;SDS011;12115;47.128;15.422;2022-07-06T14:31:37;0.65;;;0.50;;
23868;SDS011;12115;47.128;15.422;2022-07-06T14:34:06;1.75;;;0.47;;
23868;SDS011;12115;47.128;15.422;2022-07-06T14:36:32;1.05;;;0.52;;
23868;SDS011;12115;47.128;15.422;2022-07-06T14:39:00;1.65;;;0.40;;
23868;SDS011;12115;47.128;15.422;2022-07-06T14:41:27;1.90;;;0.40;;
23868;SDS011;12115;47.128;15.422;2022-07-06T14:43:54;2.72;;;0.60;;
23868;SDS011;12115;47.128;15.422;2022-07-06T14:46:21;2.47;;;0.60;;
23868;SDS011;12115;47.128;15.422;2022-07-06T14:48:49;2.58;;;0.68;;
23868;SDS011;12115;47.128;15.422;2022-07-06T14:51:16;1.70;;;0.60;;
23868;SDS011;12115;47.128;15.422;2022-07-06T14:53:43;1.60;;;0.73;;
23868;SDS011;12115;47.128;15.422;2022-07-06T14:56:10;1.58;;;0.50;;
23868;SDS011;12115;47.128;15.422;2022-07-06T14:58:37;2.80;;;0.55;;
23868;SDS011;12115;47.128;15.422;2022-07-06T15:01:18;0.93;;;0.50;;
23868;SDS011;12115;47.128;15.422;2022-07-06T15:03:46;1.88;;;0.80;;
23868;SDS011;12115;47.128;15.422;2022-07-06T15:06:13;0.80;;;0.50;;
23868;SDS011;12115;47.128;15.422;2022-07-06T15:09:00;3.20;;;0.57;;
23868;SDS011;12115;47.128;15.422;2022-07-06T15:11:30;1.00;;;0.63;;
23868;SDS011;12115;47.128;15.422;2022-07-06T15:13:58;1.00;;;0.60;;
23868;SDS011;12115;47.128;15.422;2022-07-06T15:16:25;4.57;;;0.60;;
23868;SDS011;12115;47.128;15.422;2022-07-06T15:18:52;0.50;;;0.50;;
23868;SDS011;12115;47.128;15.422;2022-07-06T15:21:19;3.17;;;0.70;;